MAD weather

Adolfo Suárez Madrid–Barajas Airport
Madrid, Madrid, Spain

Public forecast

Using degrees Celsius for public forecast. Weather courtesy of forecast.io.

Current aviation weather report (METAR) for Adolfo Suárez Madrid–Barajas Airport

Retrieved 2019/10/17 04:30 UTC (0 seconds ago):

LEMD 170430Z 35002KT CAVOK 08/05 Q1018 NOSIG

Aviation forecast (TAF) for Adolfo Suárez Madrid–Barajas Airport

Retrieved 2019-10-17 00:27 UTC (4 hours ago):

TAF LEMD 162300Z 1700/1806 VRB05KT CAVOK TX19/1715Z TN08/1706Z PROB40 TEMPO 1712/1719 25007KT PROB30 TEMPO 1709/1806 4000 RA SHRA SCT012 FEW020TCU BKN035